createdAt,value
2022-11-05T00:02:14.194Z,16.02
2022-11-05T00:05:13.348Z,16.15
2022-11-05T00:08:15.437Z,15.88
2022-11-05T00:10:59.378Z,16.14
2022-11-05T00:14:01.045Z,15.76
2022-11-05T00:16:44.996Z,15.70
2022-11-05T00:19:28.908Z,15.58
2022-11-05T00:22:31.577Z,15.65
2022-11-05T00:25:16.866Z,15.55
2022-11-05T00:28:03.247Z,15.72
2022-11-05T00:30:47.249Z,15.56
2022-11-05T00:33:31.345Z,15.84
2022-11-05T00:36:15.328Z,15.58
2022-11-05T00:39:00.812Z,15.55
2022-11-05T00:42:04.667Z,15.81
2022-11-05T00:45:01.075Z,15.70
2022-11-05T00:48:06.396Z,15.58
2022-11-05T00:50:50.409Z,15.56
2022-11-05T00:53:34.502Z,15.86
2022-11-05T00:56:19.921Z,15.55
2022-11-05T00:59:03.935Z,15.83
2022-11-05T01:01:47.972Z,15.91
2022-11-05T01:04:31.978Z,15.68
2022-11-05T01:07:15.897Z,15.99
2022-11-05T01:09:59.835Z,15.99
2022-11-05T01:12:45.362Z,15.91
2022-11-05T01:15:29.348Z,15.74
2022-11-05T01:18:13.382Z,15.85
2022-11-05T01:20:57.302Z,15.67
2022-11-05T01:23:41.371Z,15.67
2022-11-05T01:26:25.502Z,15.68
2022-11-05T01:29:12.773Z,15.83
2022-11-05T01:31:56.681Z,15.79
2022-11-05T01:34:40.716Z,15.70
2022-11-05T01:37:24.705Z,15.62
2022-11-05T01:40:10.443Z,15.69
2022-11-05T01:42:55.676Z,15.52
2022-11-05T01:45:41.056Z,15.71
2022-11-05T01:48:30.284Z,15.62
2022-11-05T01:51:18.035Z,15.87
2022-11-05T01:54:05.631Z,15.94
2022-11-05T01:56:54.218Z,15.71
2022-11-05T01:59:43.235Z,15.87
2022-11-05T02:02:29.050Z,15.93
2022-11-05T02:05:15.112Z,16.01
2022-11-05T02:07:59.463Z,15.72
2022-11-05T02:10:46.144Z,15.87
2022-11-05T02:13:30.072Z,15.82
2022-11-05T02:16:22.167Z,15.96
2022-11-05T02:19:37.986Z,15.95
2022-11-05T02:22:55.058Z,15.69
2022-11-05T02:26:00.840Z,15.79
2022-11-05T02:29:44.744Z,15.54
2022-11-05T02:32:42.448Z,15.39
2022-11-05T02:35:38.771Z,15.39
2022-11-05T02:38:37.516Z,15.63
2022-11-05T02:41:29.985Z,15.47
2022-11-05T02:44:25.210Z,15.60
2022-11-05T02:47:18.278Z,15.83
2022-11-05T02:50:15.029Z,15.83
2022-11-05T02:53:04.165Z,15.64
2022-11-05T02:55:54.278Z,15.59
2022-11-05T02:58:38.267Z,15.55
2022-11-05T03:01:22.348Z,15.33
2022-11-05T03:04:09.649Z,15.30
2022-11-05T03:07:05.571Z,15.30
2022-11-05T03:10:15.071Z,15.23
2022-11-05T03:13:10.475Z,15.21
2022-11-05T03:15:59.955Z,15.11
2022-11-05T03:18:48.852Z,14.91
2022-11-05T03:21:42.674Z,14.75
2022-11-05T03:24:31.648Z,14.75
2022-11-05T03:27:19.865Z,14.90
2022-11-05T03:30:07.716Z,14.87
2022-11-05T03:32:58.212Z,14.56
2022-11-05T03:35:47.422Z,14.56
2022-11-05T03:38:36.226Z,14.68
2022-11-05T03:41:24.045Z,14.52
2022-11-05T03:44:09.830Z,14.64
2022-11-05T03:46:55.637Z,14.39
2022-11-05T03:49:44.563Z,14.52
2022-11-05T03:52:35.042Z,14.49
2022-11-05T03:55:19.530Z,14.27
2022-11-05T03:58:06.945Z,14.34
2022-11-05T04:00:52.644Z,14.04
2022-11-05T04:03:37.336Z,14.18
2022-11-05T04:06:38.704Z,13.98
2022-11-05T04:09:51.644Z,14.15
2022-11-05T04:12:49.542Z,14.00
2022-11-05T04:15:55.463Z,13.73
2022-11-05T04:18:38.424Z,13.83
2022-11-05T04:21:39.914Z,13.92
2022-11-05T04:24:23.869Z,14.04
2022-11-05T04:27:11.463Z,13.91
2022-11-05T04:30:13.079Z,13.72
2022-11-05T04:33:07.210Z,13.83
2022-11-05T04:35:51.369Z,13.62
2022-11-05T04:38:35.952Z,13.58
2022-11-05T04:41:20.000Z,13.25
2022-11-05T04:44:04.093Z,13.51
2022-11-05T04:46:48.004Z,13.65
2022-11-05T04:49:33.532Z,13.80
2022-11-05T04:52:18.062Z,13.83
2022-11-05T04:55:02.214Z,13.75
2022-11-05T04:57:49.614Z,13.52
2022-11-05T05:00:33.764Z,13.67
2022-11-05T05:03:17.636Z,13.77
2022-11-05T05:06:04.163Z,13.70
2022-11-05T05:08:48.837Z,13.62
2022-11-05T05:11:32.782Z,13.59
2022-11-05T05:14:16.734Z,13.40
2022-11-05T05:17:00.762Z,13.55
2022-11-05T05:19:58.541Z,13.72
2022-11-05T05:22:43.882Z,13.65
2022-11-05T05:25:27.900Z,13.73
2022-11-05T05:28:11.983Z,14.07
2022-11-05T05:31:00.760Z,14.14
2022-11-05T05:33:44.967Z,13.91
2022-11-05T05:36:29.175Z,13.80
2022-11-05T05:39:14.762Z,13.78
2022-11-05T05:41:58.687Z,13.79
2022-11-05T05:44:42.759Z,13.86
2022-11-05T05:47:26.706Z,13.64
2022-11-05T05:50:10.698Z,14.03
2022-11-05T05:52:54.982Z,14.50
2022-11-05T05:55:40.411Z,14.58
2022-11-05T05:58:26.790Z,14.33
2022-11-05T06:01:18.577Z,14.72
2022-11-05T06:04:03.727Z,14.67
2022-11-05T06:06:48.429Z,14.59
2022-11-05T06:09:32.481Z,14.45
2022-11-05T06:12:17.918Z,14.82
2022-11-05T06:15:01.901Z,15.15
2022-11-05T06:17:47.894Z,15.09
2022-11-05T06:20:31.893Z,15.06
2022-11-05T06:23:15.739Z,15.19
2022-11-05T06:26:02.148Z,15.28
2022-11-05T06:28:48.164Z,15.48
2022-11-05T06:31:32.163Z,15.64
2022-11-05T06:34:16.150Z,16.14
2022-11-05T06:37:00.861Z,16.01
2022-11-05T06:39:44.943Z,16.51
2022-11-05T06:42:28.969Z,16.72
2022-11-05T06:45:14.431Z,16.96
2022-11-05T06:47:59.131Z,17.17
2022-11-05T06:50:46.429Z,17.08
2022-11-05T06:53:30.526Z,17.43
2022-11-05T06:56:14.558Z,17.60
2022-11-05T06:58:58.426Z,17.56
2022-11-05T07:01:44.084Z,17.62
2022-11-05T07:04:28.104Z,17.36
2022-11-05T07:07:12.431Z,17.24
2022-11-05T07:09:57.649Z,17.52
2022-11-05T07:12:41.692Z,17.23
2022-11-05T07:15:25.827Z,17.54
2022-11-05T07:18:11.365Z,17.70
2022-11-05T07:20:55.415Z,17.57
2022-11-05T07:23:39.421Z,17.14
2022-11-05T07:26:23.413Z,17.54
2022-11-05T07:29:07.386Z,17.51
2022-11-05T07:31:51.288Z,17.83
2022-11-05T07:34:36.594Z,17.76
2022-11-05T07:37:20.870Z,18.04
2022-11-05T07:40:05.458Z,18.20
2022-11-05T07:42:52.010Z,17.85
2022-11-05T07:45:36.026Z,18.02
2022-11-05T07:48:19.956Z,18.23
2022-11-05T07:51:05.434Z,18.27
2022-11-05T07:53:49.601Z,18.37
2022-11-05T07:56:33.702Z,18.37
2022-11-05T07:59:17.719Z,18.39
2022-11-05T08:02:01.816Z,18.76
2022-11-05T08:04:45.863Z,18.41
2022-11-05T08:07:31.364Z,18.72
2022-11-05T08:10:15.337Z,18.86
2022-11-05T08:12:59.316Z,18.66
2022-11-05T08:15:43.559Z,19.25
2022-11-05T08:18:31.456Z,19.12
2022-11-05T08:21:15.461Z,18.81
2022-11-05T08:24:00.774Z,18.87
2022-11-05T08:26:44.748Z,18.52
2022-11-05T08:29:28.716Z,18.57
2022-11-05T08:32:12.604Z,18.72
2022-11-05T08:34:56.557Z,19.40
2022-11-05T08:37:40.677Z,19.42
2022-11-05T08:40:26.300Z,19.18
2022-11-05T08:43:12.927Z,19.60
2022-11-05T08:45:57.322Z,19.29
2022-11-05T08:48:41.238Z,19.05
2022-11-05T08:51:25.093Z,19.39
2022-11-05T08:54:09.134Z,19.47
2022-11-05T08:56:54.542Z,19.55
2022-11-05T08:59:38.504Z,19.33
2022-11-05T09:02:22.409Z,19.34
2022-11-05T09:05:07.015Z,19.55
2022-11-05T09:07:53.152Z,19.69
2022-11-05T09:10:41.347Z,19.24
2022-11-05T09:13:27.230Z,19.55
2022-11-05T09:16:20.211Z,19.89
2022-11-05T09:19:05.284Z,19.66
2022-11-05T09:21:49.450Z,19.38
2022-11-05T09:24:33.428Z,19.57
2022-11-05T09:27:17.456Z,19.65
2022-11-05T09:30:02.979Z,20.04
2022-11-05T09:32:47.539Z,20.12
2022-11-05T09:35:31.615Z,20.17
2022-11-05T09:38:15.886Z,19.93
2022-11-05T09:41:02.767Z,19.69
2022-11-05T09:43:51.582Z,20.01
2022-11-05T09:46:45.131Z,20.21
2022-11-05T09:49:35.528Z,20.31
2022-11-05T09:52:23.173Z,20.35
2022-11-05T09:55:17.655Z,20.27
2022-11-05T09:58:04.458Z,20.72
2022-11-05T10:00:52.782Z,20.57
2022-11-05T10:03:46.084Z,20.37
2022-11-05T10:06:30.821Z,20.73
2022-11-05T10:09:21.527Z,20.61
2022-11-05T10:12:13.513Z,20.77
2022-11-05T10:15:15.746Z,20.77
2022-11-05T10:18:04.398Z,20.67
2022-11-05T10:20:50.174Z,21.02
2022-11-05T10:23:34.704Z,21.16
2022-11-05T10:26:22.103Z,21.14
2022-11-05T10:29:06.442Z,21.04
2022-11-05T10:31:50.842Z,21.43
2022-11-05T10:34:38.398Z,21.54
2022-11-05T10:37:25.925Z,21.25
2022-11-05T10:40:18.419Z,21.28
2022-11-05T10:43:07.307Z,21.36
2022-11-05T10:45:57.876Z,21.72
2022-11-05T10:48:54.485Z,21.66
2022-11-05T10:51:38.807Z,21.49
2022-11-05T10:54:28.004Z,21.42
2022-11-05T10:57:31.071Z,21.87
2022-11-05T11:00:29.277Z,21.96
2022-11-05T11:03:34.318Z,21.77
2022-11-05T11:06:24.681Z,22.12
2022-11-05T11:09:19.345Z,21.81
2022-11-05T11:12:09.037Z,22.11
2022-11-05T11:15:03.040Z,21.66
2022-11-05T11:17:48.806Z,21.42
2022-11-05T11:20:34.027Z,21.43
2022-11-05T11:23:19.003Z,21.80
2022-11-05T11:26:03.916Z,21.77
2022-11-05T11:28:59.466Z,21.66
2022-11-05T11:31:43.953Z,21.67
2022-11-05T11:34:31.772Z,21.60
2022-11-05T11:37:20.191Z,21.65
2022-11-05T11:40:10.170Z,21.74
2022-11-05T11:42:57.929Z,21.38
2022-11-05T11:45:49.540Z,21.65
2022-11-05T11:48:37.549Z,21.74
2022-11-05T11:51:32.155Z,21.92
2022-11-05T11:54:23.853Z,21.78
2022-11-05T11:57:23.294Z,21.73
2022-11-05T12:00:10.398Z,21.45
2022-11-05T12:03:12.716Z,21.70
2022-11-05T12:06:07.624Z,21.67
2022-11-05T12:09:06.510Z,21.82
2022-11-05T12:12:01.756Z,21.74
2022-11-05T12:14:56.452Z,21.86
2022-11-05T12:17:51.231Z,21.39
2022-11-05T12:20:58.484Z,21.35
2022-11-05T12:24:05.163Z,21.81
2022-11-05T12:27:01.449Z,21.39
2022-11-05T12:29:59.102Z,21.06
2022-11-05T12:32:57.354Z,21.43
2022-11-05T12:35:57.795Z,21.58
2022-11-05T12:39:25.260Z,21.91
2022-11-05T12:42:17.847Z,21.65
2022-11-05T12:45:06.255Z,21.48
2022-11-05T12:48:11.171Z,21.24
2022-11-05T12:51:03.817Z,21.32
2022-11-05T12:54:07.704Z,21.71
2022-11-05T12:56:55.113Z,21.41
2022-11-05T13:00:03.914Z,21.56
2022-11-05T13:02:54.279Z,21.67
2022-11-05T13:05:41.437Z,21.55
2022-11-05T13:08:30.113Z,20.82
2022-11-05T13:11:21.623Z,21.08
2022-11-05T13:14:11.616Z,21.00
2022-11-05T13:17:01.697Z,20.95
2022-11-05T13:19:52.170Z,21.15
2022-11-05T13:22:40.164Z,20.91
2022-11-05T13:25:26.853Z,21.14
2022-11-05T13:28:19.300Z,20.81
2022-11-05T13:31:07.917Z,20.41
2022-11-05T13:33:54.604Z,20.21
2022-11-05T13:37:05.961Z,20.74
2022-11-05T13:39:54.678Z,20.79
2022-11-05T13:43:09.280Z,20.78
2022-11-05T13:46:13.613Z,20.63
2022-11-05T13:49:22.332Z,20.62
2022-11-05T13:52:27.404Z,20.58
2022-11-05T13:55:32.721Z,20.41
2022-11-05T13:58:45.657Z,20.29
2022-11-05T14:01:46.354Z,20.45
2022-11-05T14:04:36.527Z,20.40
2022-11-05T14:07:23.514Z,20.31
2022-11-05T14:10:20.804Z,20.13
2022-11-05T14:13:17.539Z,20.02
2022-11-05T14:16:09.268Z,19.67
2022-11-05T14:18:56.559Z,19.83
2022-11-05T14:21:50.946Z,19.45
2022-11-05T14:24:43.691Z,19.62
2022-11-05T14:27:45.078Z,19.38
2022-11-05T14:30:45.181Z,19.09
2022-11-05T14:33:38.896Z,19.23
2022-11-05T14:36:37.723Z,18.95
2022-11-05T14:39:27.641Z,19.00
2022-11-05T14:42:16.852Z,18.90
2022-11-05T14:45:21.425Z,18.17
2022-11-05T14:48:07.880Z,18.62
2022-11-05T14:50:52.361Z,18.54
2022-11-05T14:53:38.636Z,18.26
2022-11-05T14:56:24.245Z,18.20
2022-11-05T14:59:52.091Z,18.12
2022-11-05T15:02:39.708Z,18.08
2022-11-05T15:05:39.688Z,17.99
2022-11-05T15:08:39.008Z,17.88
2022-11-05T15:11:31.571Z,17.72
2022-11-05T15:14:23.337Z,17.39
2022-11-05T15:17:17.092Z,17.19
2022-11-05T15:20:09.720Z,17.63
2022-11-05T15:22:59.694Z,17.60
2022-11-05T15:25:53.251Z,17.37
2022-11-05T15:28:43.029Z,17.42
2022-11-05T15:31:33.818Z,17.49
2022-11-05T15:34:22.004Z,17.06
2022-11-05T15:37:24.844Z,16.59
2022-11-05T15:40:23.126Z,16.38
2022-11-05T15:43:14.905Z,16.46
2022-11-05T15:46:02.398Z,16.58
2022-11-05T15:48:52.986Z,16.45
2022-11-05T15:51:37.079Z,16.33
2022-11-05T15:54:30.220Z,16.13
2022-11-05T15:57:26.662Z,16.08
2022-11-05T16:00:18.749Z,16.09
2022-11-05T16:03:12.595Z,15.67
2022-11-05T16:05:57.160Z,15.49
2022-11-05T16:08:47.244Z,15.70
2022-11-05T16:11:32.887Z,15.73
2022-11-05T16:14:18.744Z,15.83
2022-11-05T16:17:12.591Z,15.46
2022-11-05T16:19:58.245Z,15.69
2022-11-05T16:22:48.081Z,15.73
2022-11-05T16:25:38.593Z,15.69
2022-11-05T16:28:25.263Z,15.82
2022-11-05T16:31:09.279Z,15.48
2022-11-05T16:33:54.136Z,15.41
2022-11-05T16:36:39.644Z,15.25
2022-11-05T16:39:23.911Z,15.31
2022-11-05T16:42:40.571Z,15.52
2022-11-05T16:45:26.423Z,15.44
2022-11-05T16:48:12.627Z,15.28
2022-11-05T16:50:56.931Z,15.35
2022-11-05T16:53:42.352Z,15.16
2022-11-05T16:56:26.602Z,14.84
2022-11-05T16:59:14.123Z,14.96
2022-11-05T17:01:59.594Z,15.08
2022-11-05T17:04:45.167Z,15.31
2022-11-05T17:07:30.937Z,15.44
2022-11-05T17:10:16.946Z,15.31
2022-11-05T17:13:01.230Z,15.14
2022-11-05T17:15:47.033Z,15.26
2022-11-05T17:18:31.669Z,15.30
2022-11-05T17:21:15.938Z,15.14
2022-11-05T17:24:01.745Z,14.99
2022-11-05T17:26:47.583Z,14.99
2022-11-05T17:29:31.744Z,14.79
2022-11-05T17:32:17.038Z,14.78
2022-11-05T17:35:02.460Z,15.00
2022-11-05T17:37:47.020Z,15.41
2022-11-05T17:40:31.181Z,15.49
2022-11-05T17:43:16.952Z,15.28
2022-11-05T17:46:04.542Z,15.27
2022-11-05T17:48:49.314Z,15.25
2022-11-05T17:51:35.039Z,15.26
2022-11-05T17:54:19.331Z,14.90
2022-11-05T17:57:05.865Z,14.85
2022-11-05T17:59:51.832Z,14.99
2022-11-05T18:02:38.614Z,14.67
2022-11-05T18:05:25.226Z,15.21
2022-11-05T18:08:10.476Z,15.18
2022-11-05T18:10:55.369Z,15.09
2022-11-05T18:13:39.808Z,15.12
2022-11-05T18:16:27.234Z,15.29
2022-11-05T18:19:12.010Z,14.84
2022-11-05T18:22:00.030Z,15.28
2022-11-05T18:24:44.250Z,15.07
2022-11-05T18:27:30.701Z,15.01
2022-11-05T18:30:17.587Z,15.06
2022-11-05T18:33:03.356Z,15.05
2022-11-05T18:35:47.994Z,15.31
2022-11-05T18:38:32.173Z,14.84
2022-11-05T18:41:16.899Z,15.14
2022-11-05T18:44:01.763Z,15.53
2022-11-05T18:46:58.009Z,15.35
2022-11-05T18:49:44.190Z,15.54
2022-11-05T18:52:29.653Z,15.47
2022-11-05T18:55:14.139Z,15.49
2022-11-05T18:57:58.298Z,15.50
2022-11-05T19:00:46.310Z,15.61
2022-11-05T19:03:30.551Z,15.38
2022-11-05T19:06:16.336Z,15.28
2022-11-05T19:09:00.352Z,15.26
2022-11-05T19:11:44.675Z,15.34
2022-11-05T19:14:30.354Z,15.31
2022-11-05T19:17:14.761Z,15.23
2022-11-05T19:19:58.752Z,15.16
2022-11-05T19:22:44.326Z,15.11
2022-11-05T19:25:29.931Z,15.07
2022-11-05T19:28:16.836Z,14.89
2022-11-05T19:31:00.965Z,14.84
2022-11-05T19:33:47.874Z,14.75
2022-11-05T19:36:31.947Z,14.79
2022-11-05T19:39:20.368Z,14.77
2022-11-05T19:42:04.794Z,14.75
2022-11-05T19:44:49.093Z,14.71
2022-11-05T19:47:33.095Z,14.85
2022-11-05T19:50:17.539Z,14.96
2022-11-05T19:53:03.349Z,14.88
2022-11-05T19:55:48.858Z,14.85
2022-11-05T19:58:34.852Z,14.97
2022-11-05T20:01:21.539Z,14.77
2022-11-05T20:04:09.495Z,14.82
2022-11-05T20:06:56.534Z,14.78
2022-11-05T20:09:40.580Z,15.08
2022-11-05T20:12:26.197Z,14.95
2022-11-05T20:15:16.469Z,14.86
2022-11-05T20:18:03.711Z,14.96
2022-11-05T20:20:48.184Z,14.77
2022-11-05T20:23:36.406Z,14.79
2022-11-05T20:26:23.506Z,15.09
2022-11-05T20:29:11.696Z,15.17
2022-11-05T20:31:57.317Z,14.90
2022-11-05T20:34:41.761Z,14.95
2022-11-05T20:40:23.841Z,15.03
2022-11-05T20:43:09.570Z,14.74
2022-11-05T20:45:55.006Z,14.98
2022-11-05T20:48:40.789Z,14.94
2022-11-05T20:51:28.726Z,14.81
2022-11-05T20:54:13.001Z,14.67
2022-11-05T20:56:57.192Z,14.89
2022-11-05T20:59:41.348Z,14.85
2022-11-05T21:02:27.028Z,14.82
2022-11-05T21:05:16.835Z,14.75
2022-11-05T21:08:01.274Z,14.60
2022-11-05T21:10:51.001Z,14.72
2022-11-05T21:13:36.445Z,14.98
2022-11-05T21:16:21.314Z,14.97
2022-11-05T21:19:07.046Z,14.97
2022-11-05T21:21:51.484Z,14.73
2022-11-05T21:24:37.794Z,14.86
2022-11-05T21:27:21.779Z,14.73
2022-11-05T21:30:09.967Z,14.65
2022-11-05T21:32:54.188Z,14.74
2022-11-05T21:35:44.087Z,14.60
2022-11-05T21:38:29.485Z,13.73
2022-11-05T21:41:17.481Z,14.54
2022-11-05T21:44:01.479Z,14.37
2022-11-05T21:46:48.209Z,14.54
2022-11-05T21:49:32.438Z,14.39
2022-11-05T21:52:35.732Z,14.40
2022-11-05T21:55:39.786Z,14.14
2022-11-05T21:58:46.113Z,14.35
2022-11-05T22:01:30.437Z,14.52
2022-11-05T22:04:14.645Z,14.54
2022-11-05T22:06:58.997Z,14.09
2022-11-05T22:09:44.826Z,13.84
2022-11-05T22:12:31.959Z,13.87
2022-11-05T22:15:18.458Z,14.28
2022-11-05T22:18:02.404Z,14.04
2022-11-05T22:20:46.698Z,14.20
2022-11-05T22:23:30.624Z,14.25
2022-11-05T22:26:16.837Z,14.20
2022-11-05T22:29:00.867Z,14.30
2022-11-05T22:31:45.473Z,14.33
2022-11-05T22:34:29.469Z,14.31
2022-11-05T22:37:14.271Z,14.39
2022-11-05T22:39:58.315Z,14.45
2022-11-05T22:42:43.735Z,14.49
2022-11-05T22:45:27.704Z,14.48
2022-11-05T22:48:12.044Z,14.54
2022-11-05T22:50:56.063Z,14.44
2022-11-05T22:53:40.874Z,14.12
2022-11-05T22:56:27.018Z,14.33
2022-11-05T22:59:16.240Z,14.25
2022-11-05T23:02:03.903Z,13.69
2022-11-05T23:04:53.098Z,14.51
2022-11-05T23:07:56.303Z,14.69
2022-11-05T23:10:58.050Z,14.54
2022-11-05T23:13:42.018Z,14.69
2022-11-05T23:16:45.148Z,14.56
2022-11-05T23:19:48.692Z,14.69
2022-11-05T23:22:51.507Z,14.63
2022-11-05T23:25:35.558Z,14.58
2022-11-05T23:28:21.545Z,14.61
2022-11-05T23:31:22.662Z,14.41
2022-11-05T23:34:08.107Z,14.50
2022-11-05T23:37:10.000Z,14.69
2022-11-05T23:39:54.103Z,14.68
2022-11-05T23:42:56.071Z,14.63
2022-11-05T23:45:59.138Z,14.71
2022-11-05T23:48:42.902Z,14.42
2022-11-05T23:51:28.274Z,14.41
2022-11-05T23:54:12.221Z,14.54
2022-11-05T23:56:56.064Z,14.53
2022-11-05T23:59:39.861Z,14.48
